sensor_id;sensor_type;location;lat;lon;timestamp;P1;durP1;ratioP1;P2;durP2;ratioP2
19179;SDS011;9722;48.754;8.868;2022-12-07T00:01:39;5.20;;;4.70;;
19179;SDS011;9722;48.754;8.868;2022-12-07T00:05:01;6.03;;;4.80;;
19179;SDS011;9722;48.754;8.868;2022-12-07T00:08:22;5.97;;;4.83;;
19179;SDS011;9722;48.754;8.868;2022-12-07T00:11:43;5.20;;;4.70;;
19179;SDS011;9722;48.754;8.868;2022-12-07T00:15:04;5.73;;;5.17;;
19179;SDS011;9722;48.754;8.868;2022-12-07T00:18:25;5.37;;;4.87;;
19179;SDS011;9722;48.754;8.868;2022-12-07T00:21:46;5.20;;;4.80;;
19179;SDS011;9722;48.754;8.868;2022-12-07T00:25:06;4.90;;;4.50;;
19179;SDS011;9722;48.754;8.868;2022-12-07T00:28:27;5.57;;;5.07;;
19179;SDS011;9722;48.754;8.868;2022-12-07T00:31:47;5.23;;;4.73;;
19179;SDS011;9722;48.754;8.868;2022-12-07T00:35:08;4.80;;;4.40;;
19179;SDS011;9722;48.754;8.868;2022-12-07T00:38:29;4.90;;;4.50;;
19179;SDS011;9722;48.754;8.868;2022-12-07T00:41:51;5.67;;;4.80;;
19179;SDS011;9722;48.754;8.868;2022-12-07T00:45:12;5.03;;;4.63;;
19179;SDS011;9722;48.754;8.868;2022-12-07T00:48:33;5.20;;;4.70;;
19179;SDS011;9722;48.754;8.868;2022-12-07T00:51:53;4.80;;;4.40;;
19179;SDS011;9722;48.754;8.868;2022-12-07T00:55:14;5.10;;;4.63;;
19179;SDS011;9722;48.754;8.868;2022-12-07T00:58:34;5.13;;;4.70;;
19179;SDS011;9722;48.754;8.868;2022-12-07T01:01:55;4.87;;;4.47;;
19179;SDS011;9722;48.754;8.868;2022-12-07T01:05:16;5.53;;;5.03;;
19179;SDS011;9722;48.754;8.868;2022-12-07T01:08:36;5.30;;;4.90;;
19179;SDS011;9722;48.754;8.868;2022-12-07T01:11:56;5.23;;;4.80;;
19179;SDS011;9722;48.754;8.868;2022-12-07T01:15:17;5.67;;;5.17;;
19179;SDS011;9722;48.754;8.868;2022-12-07T01:18:38;5.47;;;4.97;;
19179;SDS011;9722;48.754;8.868;2022-12-07T01:21:59;5.60;;;5.10;;
19179;SDS011;9722;48.754;8.868;2022-12-07T01:25:19;5.60;;;5.10;;
19179;SDS011;9722;48.754;8.868;2022-12-07T01:28:40;5.23;;;4.83;;
19179;SDS011;9722;48.754;8.868;2022-12-07T01:32:01;5.93;;;5.30;;
19179;SDS011;9722;48.754;8.868;2022-12-07T01:35:21;5.60;;;5.10;;
19179;SDS011;9722;48.754;8.868;2022-12-07T01:38:42;4.80;;;4.40;;
19179;SDS011;9722;48.754;8.868;2022-12-07T01:42:03;5.60;;;5.13;;
19179;SDS011;9722;48.754;8.868;2022-12-07T01:45:38;4.67;;;4.27;;
19179;SDS011;9722;48.754;8.868;2022-12-07T01:49:00;4.47;;;3.93;;
19179;SDS011;9722;48.754;8.868;2022-12-07T01:52:22;4.63;;;4.23;;
19179;SDS011;9722;48.754;8.868;2022-12-07T01:55:44;5.07;;;4.63;;
19179;SDS011;9722;48.754;8.868;2022-12-07T01:59:09;4.80;;;4.40;;
19179;SDS011;9722;48.754;8.868;2022-12-07T02:02:33;5.00;;;4.60;;
19179;SDS011;9722;48.754;8.868;2022-12-07T02:05:57;4.87;;;4.43;;
19179;SDS011;9722;48.754;8.868;2022-12-07T02:09:20;5.00;;;4.60;;
19179;SDS011;9722;48.754;8.868;2022-12-07T02:12:40;4.97;;;4.57;;
19179;SDS011;9722;48.754;8.868;2022-12-07T02:26:55;4.93;;;4.47;;
19179;SDS011;9722;48.754;8.868;2022-12-07T02:30:28;4.90;;;4.50;;
19179;SDS011;9722;48.754;8.868;2022-12-07T02:33:54;5.40;;;4.90;;
19179;SDS011;9722;48.754;8.868;2022-12-07T02:41:21;5.37;;;4.90;;
19179;SDS011;9722;48.754;8.868;2022-12-07T02:44:45;5.30;;;4.80;;
19179;SDS011;9722;48.754;8.868;2022-12-07T02:48:07;5.50;;;5.00;;
19179;SDS011;9722;48.754;8.868;2022-12-07T02:51:30;5.37;;;4.87;;
19179;SDS011;9722;48.754;8.868;2022-12-07T02:54:52;6.43;;;4.63;;
19179;SDS011;9722;48.754;8.868;2022-12-07T02:58:32;5.30;;;4.80;;
19179;SDS011;9722;48.754;8.868;2022-12-07T03:06:06;5.10;;;4.70;;
19179;SDS011;9722;48.754;8.868;2022-12-07T03:13:19;4.47;;;4.17;;
19179;SDS011;9722;48.754;8.868;2022-12-07T03:17:21;5.00;;;4.60;;
19179;SDS011;9722;48.754;8.868;2022-12-07T03:20:46;4.97;;;4.43;;
19179;SDS011;9722;48.754;8.868;2022-12-07T03:24:12;6.23;;;5.73;;
19179;SDS011;9722;48.754;8.868;2022-12-07T03:27:39;6.50;;;5.90;;
19179;SDS011;9722;48.754;8.868;2022-12-07T03:31:26;5.17;;;4.77;;
19179;SDS011;9722;48.754;8.868;2022-12-07T03:34:52;4.93;;;4.53;;
19179;SDS011;9722;48.754;8.868;2022-12-07T03:41:57;5.37;;;4.83;;
19179;SDS011;9722;48.754;8.868;2022-12-07T03:45:21;5.20;;;4.70;;
19179;SDS011;9722;48.754;8.868;2022-12-07T03:56:17;5.10;;;4.70;;
19179;SDS011;9722;48.754;8.868;2022-12-07T03:59:39;5.40;;;4.50;;
19179;SDS011;9722;48.754;8.868;2022-12-07T04:03:01;4.80;;;4.40;;
19179;SDS011;9722;48.754;8.868;2022-12-07T04:06:22;4.87;;;4.47;;
19179;SDS011;9722;48.754;8.868;2022-12-07T04:09:42;5.00;;;4.60;;
19179;SDS011;9722;48.754;8.868;2022-12-07T04:13:03;5.20;;;4.77;;
19179;SDS011;9722;48.754;8.868;2022-12-07T04:16:23;4.93;;;4.53;;
19179;SDS011;9722;48.754;8.868;2022-12-07T04:19:44;5.93;;;4.90;;
19179;SDS011;9722;48.754;8.868;2022-12-07T04:23:04;7.13;;;5.27;;
19179;SDS011;9722;48.754;8.868;2022-12-07T04:26:25;6.37;;;5.67;;
19179;SDS011;9722;48.754;8.868;2022-12-07T04:29:45;4.00;;;3.27;;
19179;SDS011;9722;48.754;8.868;2022-12-07T04:33:06;4.97;;;4.03;;
19179;SDS011;9722;48.754;8.868;2022-12-07T04:36:28;5.30;;;4.63;;
19179;SDS011;9722;48.754;8.868;2022-12-07T04:39:49;4.73;;;4.20;;
19179;SDS011;9722;48.754;8.868;2022-12-07T04:43:10;4.37;;;4.00;;
19179;SDS011;9722;48.754;8.868;2022-12-07T04:46:31;4.60;;;4.20;;
19179;SDS011;9722;48.754;8.868;2022-12-07T04:49:51;4.30;;;3.90;;
19179;SDS011;9722;48.754;8.868;2022-12-07T04:53:12;3.17;;;2.97;;
19179;SDS011;9722;48.754;8.868;2022-12-07T04:56:32;3.07;;;2.73;;
19179;SDS011;9722;48.754;8.868;2022-12-07T04:59:55;4.50;;;2.83;;
19179;SDS011;9722;48.754;8.868;2022-12-07T05:03:15;3.33;;;3.03;;
19179;SDS011;9722;48.754;8.868;2022-12-07T05:06:36;3.53;;;3.23;;
19179;SDS011;9722;48.754;8.868;2022-12-07T05:09:56;2.93;;;2.63;;
19179;SDS011;9722;48.754;8.868;2022-12-07T05:13:17;3.20;;;2.90;;
19179;SDS011;9722;48.754;8.868;2022-12-07T05:16:37;3.53;;;3.27;;
19179;SDS011;9722;48.754;8.868;2022-12-07T05:19:58;3.60;;;3.30;;
19179;SDS011;9722;48.754;8.868;2022-12-07T05:23:19;3.57;;;3.20;;
19179;SDS011;9722;48.754;8.868;2022-12-07T05:26:40;3.37;;;3.03;;
19179;SDS011;9722;48.754;8.868;2022-12-07T05:30:00;3.47;;;3.17;;
19179;SDS011;9722;48.754;8.868;2022-12-07T05:33:21;3.30;;;3.00;;
19179;SDS011;9722;48.754;8.868;2022-12-07T05:36:41;3.77;;;3.47;;
19179;SDS011;9722;48.754;8.868;2022-12-07T05:40:02;3.90;;;3.50;;
19179;SDS011;9722;48.754;8.868;2022-12-07T05:43:24;5.37;;;4.47;;
19179;SDS011;9722;48.754;8.868;2022-12-07T05:46:44;4.93;;;4.53;;
19179;SDS011;9722;48.754;8.868;2022-12-07T05:50:05;4.80;;;3.47;;
19179;SDS011;9722;48.754;8.868;2022-12-07T05:53:26;8.23;;;5.00;;
19179;SDS011;9722;48.754;8.868;2022-12-07T05:56:47;4.93;;;4.50;;
19179;SDS011;9722;48.754;8.868;2022-12-07T06:00:07;4.87;;;4.30;;
19179;SDS011;9722;48.754;8.868;2022-12-07T06:03:28;29.23;;;14.40;;
19179;SDS011;9722;48.754;8.868;2022-12-07T06:06:49;5.60;;;4.53;;
19179;SDS011;9722;48.754;8.868;2022-12-07T06:10:10;7.17;;;6.47;;
19179;SDS011;9722;48.754;8.868;2022-12-07T06:13:30;4.43;;;4.00;;
19179;SDS011;9722;48.754;8.868;2022-12-07T06:16:51;4.53;;;3.93;;
19179;SDS011;9722;48.754;8.868;2022-12-07T06:20:11;4.00;;;3.63;;
19179;SDS011;9722;48.754;8.868;2022-12-07T06:23:33;6.03;;;4.33;;
19179;SDS011;9722;48.754;8.868;2022-12-07T06:26:53;4.20;;;3.80;;
19179;SDS011;9722;48.754;8.868;2022-12-07T06:30:14;4.53;;;4.03;;
19179;SDS011;9722;48.754;8.868;2022-12-07T06:33:35;5.07;;;3.83;;
19179;SDS011;9722;48.754;8.868;2022-12-07T06:36:55;4.27;;;3.57;;
19179;SDS011;9722;48.754;8.868;2022-12-07T06:40:16;4.77;;;4.13;;
19179;SDS011;9722;48.754;8.868;2022-12-07T06:43:36;4.23;;;3.80;;
19179;SDS011;9722;48.754;8.868;2022-12-07T06:46:58;4.03;;;3.50;;
19179;SDS011;9722;48.754;8.868;2022-12-07T06:50:18;5.70;;;3.43;;
19179;SDS011;9722;48.754;8.868;2022-12-07T06:53:39;5.13;;;4.63;;
19179;SDS011;9722;48.754;8.868;2022-12-07T06:56:59;9.13;;;4.07;;
19179;SDS011;9722;48.754;8.868;2022-12-07T07:00:20;3.67;;;3.37;;
19179;SDS011;9722;48.754;8.868;2022-12-07T07:03:41;4.20;;;3.80;;
19179;SDS011;9722;48.754;8.868;2022-12-07T07:07:01;3.50;;;3.20;;
19179;SDS011;9722;48.754;8.868;2022-12-07T07:10:22;3.40;;;3.13;;
19179;SDS011;9722;48.754;8.868;2022-12-07T07:13:42;3.77;;;3.40;;
19179;SDS011;9722;48.754;8.868;2022-12-07T07:17:03;4.53;;;3.33;;
19179;SDS011;9722;48.754;8.868;2022-12-07T07:20:24;7.13;;;4.43;;
19179;SDS011;9722;48.754;8.868;2022-12-07T07:23:45;4.07;;;3.67;;
19179;SDS011;9722;48.754;8.868;2022-12-07T07:27:05;5.40;;;4.27;;
19179;SDS011;9722;48.754;8.868;2022-12-07T07:30:27;3.07;;;2.87;;
19179;SDS011;9722;48.754;8.868;2022-12-07T07:33:47;3.33;;;2.87;;
19179;SDS011;9722;48.754;8.868;2022-12-07T07:37:08;3.33;;;2.43;;
19179;SDS011;9722;48.754;8.868;2022-12-07T07:40:29;3.03;;;2.77;;
19179;SDS011;9722;48.754;8.868;2022-12-07T07:43:50;2.87;;;2.67;;
19179;SDS011;9722;48.754;8.868;2022-12-07T07:47:10;2.03;;;1.90;;
19179;SDS011;9722;48.754;8.868;2022-12-07T07:50:31;3.20;;;2.57;;
19179;SDS011;9722;48.754;8.868;2022-12-07T07:53:51;2.50;;;2.30;;
19179;SDS011;9722;48.754;8.868;2022-12-07T07:57:12;3.27;;;2.97;;
19179;SDS011;9722;48.754;8.868;2022-12-07T08:00:32;3.07;;;2.80;;
19179;SDS011;9722;48.754;8.868;2022-12-07T08:03:53;2.73;;;2.53;;
19179;SDS011;9722;48.754;8.868;2022-12-07T08:07:14;3.00;;;2.80;;
19179;SDS011;9722;48.754;8.868;2022-12-07T08:10:35;4.20;;;3.03;;
19179;SDS011;9722;48.754;8.868;2022-12-07T08:13:56;2.93;;;2.40;;
19179;SDS011;9722;48.754;8.868;2022-12-07T08:17:17;3.03;;;2.33;;
19179;SDS011;9722;48.754;8.868;2022-12-07T08:20:38;2.70;;;2.27;;
19179;SDS011;9722;48.754;8.868;2022-12-07T08:24:00;1.97;;;1.87;;
19179;SDS011;9722;48.754;8.868;2022-12-07T08:27:21;3.63;;;2.10;;
19179;SDS011;9722;48.754;8.868;2022-12-07T08:30:46;2.47;;;2.27;;
19179;SDS011;9722;48.754;8.868;2022-12-07T08:34:07;3.10;;;2.80;;
19179;SDS011;9722;48.754;8.868;2022-12-07T08:37:29;2.80;;;2.60;;
19179;SDS011;9722;48.754;8.868;2022-12-07T08:40:54;3.37;;;2.97;;
19179;SDS011;9722;48.754;8.868;2022-12-07T08:44:18;2.57;;;2.37;;
19179;SDS011;9722;48.754;8.868;2022-12-07T08:47:59;2.47;;;2.27;;
19179;SDS011;9722;48.754;8.868;2022-12-07T08:51:26;2.20;;;2.00;;
19179;SDS011;9722;48.754;8.868;2022-12-07T08:54:46;2.33;;;2.13;;
19179;SDS011;9722;48.754;8.868;2022-12-07T08:58:07;2.90;;;2.57;;
19179;SDS011;9722;48.754;8.868;2022-12-07T09:01:28;2.70;;;2.50;;
19179;SDS011;9722;48.754;8.868;2022-12-07T09:04:48;2.60;;;2.40;;
19179;SDS011;9722;48.754;8.868;2022-12-07T09:08:09;2.27;;;2.07;;
19179;SDS011;9722;48.754;8.868;2022-12-07T09:11:30;2.50;;;2.30;;
19179;SDS011;9722;48.754;8.868;2022-12-07T09:14:50;2.27;;;2.07;;
19179;SDS011;9722;48.754;8.868;2022-12-07T09:18:11;3.50;;;3.03;;
19179;SDS011;9722;48.754;8.868;2022-12-07T09:21:31;3.43;;;3.10;;
19179;SDS011;9722;48.754;8.868;2022-12-07T09:24:52;3.43;;;2.90;;
19179;SDS011;9722;48.754;8.868;2022-12-07T09:28:13;2.73;;;2.53;;
19179;SDS011;9722;48.754;8.868;2022-12-07T09:31:35;3.70;;;3.40;;
19179;SDS011;9722;48.754;8.868;2022-12-07T09:34:56;3.43;;;3.13;;
19179;SDS011;9722;48.754;8.868;2022-12-07T09:38:17;3.33;;;2.60;;
19179;SDS011;9722;48.754;8.868;2022-12-07T09:41:40;2.00;;;1.90;;
19179;SDS011;9722;48.754;8.868;2022-12-07T09:45:04;2.17;;;2.07;;
19179;SDS011;9722;48.754;8.868;2022-12-07T09:48:29;2.23;;;2.03;;
19179;SDS011;9722;48.754;8.868;2022-12-07T09:55:47;2.27;;;2.00;;
19179;SDS011;9722;48.754;8.868;2022-12-07T09:59:16;2.63;;;2.43;;
19179;SDS011;9722;48.754;8.868;2022-12-07T10:02:39;3.33;;;3.03;;
19179;SDS011;9722;48.754;8.868;2022-12-07T10:06:01;2.43;;;2.23;;
19179;SDS011;9722;48.754;8.868;2022-12-07T10:09:22;3.47;;;3.17;;
19179;SDS011;9722;48.754;8.868;2022-12-07T10:19:48;6.00;;;5.50;;
19179;SDS011;9722;48.754;8.868;2022-12-07T10:23:13;2.47;;;2.27;;
19179;SDS011;9722;48.754;8.868;2022-12-07T10:26:37;2.30;;;2.10;;
19179;SDS011;9722;48.754;8.868;2022-12-07T10:30:01;2.43;;;2.23;;
19179;SDS011;9722;48.754;8.868;2022-12-07T10:33:30;2.80;;;2.60;;
19179;SDS011;9722;48.754;8.868;2022-12-07T10:40:36;4.00;;;3.70;;
19179;SDS011;9722;48.754;8.868;2022-12-07T10:43:57;1.93;;;1.63;;
19179;SDS011;9722;48.754;8.868;2022-12-07T10:54:23;2.07;;;1.90;;
19179;SDS011;9722;48.754;8.868;2022-12-07T11:01:43;1.63;;;1.53;;
19179;SDS011;9722;48.754;8.868;2022-12-07T11:05:27;1.40;;;1.20;;
19179;SDS011;9722;48.754;8.868;2022-12-07T11:13:00;2.73;;;2.50;;
19179;SDS011;9722;48.754;8.868;2022-12-07T11:16:48;1.30;;;1.20;;
19179;SDS011;9722;48.754;8.868;2022-12-07T11:38:42;3.13;;;2.93;;
19179;SDS011;9722;48.754;8.868;2022-12-07T11:42:16;1.50;;;1.20;;
19179;SDS011;9722;48.754;8.868;2022-12-07T11:45:42;1.00;;;1.00;;
19179;SDS011;9722;48.754;8.868;2022-12-07T11:49:14;1.40;;;1.30;;
19179;SDS011;9722;48.754;8.868;2022-12-07T11:52:51;1.40;;;1.30;;
19179;SDS011;9722;48.754;8.868;2022-12-07T11:56:20;1.07;;;1.07;;
19179;SDS011;9722;48.754;8.868;2022-12-07T11:59:45;1.10;;;1.10;;
19179;SDS011;9722;48.754;8.868;2022-12-07T12:03:15;2.70;;;2.07;;
19179;SDS011;9722;48.754;8.868;2022-12-07T12:06:50;1.70;;;1.60;;
19179;SDS011;9722;48.754;8.868;2022-12-07T12:10:15;1.17;;;1.10;;
19179;SDS011;9722;48.754;8.868;2022-12-07T12:13:52;1.00;;;0.90;;
19179;SDS011;9722;48.754;8.868;2022-12-07T12:21:37;4.67;;;4.27;;
19179;SDS011;9722;48.754;8.868;2022-12-07T12:24:59;22.27;;;15.93;;
19179;SDS011;9722;48.754;8.868;2022-12-07T12:28:27;4.10;;;3.70;;
19179;SDS011;9722;48.754;8.868;2022-12-07T12:35:40;11.03;;;9.73;;
19179;SDS011;9722;48.754;8.868;2022-12-07T12:42:42;7.73;;;6.90;;
19179;SDS011;9722;48.754;8.868;2022-12-07T12:50:24;3.67;;;3.40;;
19179;SDS011;9722;48.754;8.868;2022-12-07T12:53:38;4.57;;;4.17;;
19179;SDS011;9722;48.754;8.868;2022-12-07T12:57:16;4.13;;;3.83;;
19179;SDS011;9722;48.754;8.868;2022-12-07T13:00:44;4.97;;;4.47;;
19179;SDS011;9722;48.754;8.868;2022-12-07T13:04:21;6.73;;;6.17;;
19179;SDS011;9722;48.754;8.868;2022-12-07T13:11:31;15.80;;;14.10;;
19179;SDS011;9722;48.754;8.868;2022-12-07T13:14:53;9.60;;;8.70;;
19179;SDS011;9722;48.754;8.868;2022-12-07T13:21:51;3.77;;;2.83;;
19179;SDS011;9722;48.754;8.868;2022-12-07T13:25:18;2.20;;;2.10;;
19179;SDS011;9722;48.754;8.868;2022-12-07T13:29:27;4.67;;;4.27;;
19179;SDS011;9722;48.754;8.868;2022-12-07T13:32:43;4.23;;;3.83;;
19179;SDS011;9722;48.754;8.868;2022-12-07T13:36:17;2.70;;;2.50;;
19179;SDS011;9722;48.754;8.868;2022-12-07T13:39:58;6.73;;;6.13;;
19179;SDS011;9722;48.754;8.868;2022-12-07T13:43:21;4.53;;;4.23;;
19179;SDS011;9722;48.754;8.868;2022-12-07T13:50:21;2.50;;;2.30;;
19179;SDS011;9722;48.754;8.868;2022-12-07T13:53:52;2.87;;;2.60;;
19179;SDS011;9722;48.754;8.868;2022-12-07T13:57:15;3.00;;;2.80;;
19179;SDS011;9722;48.754;8.868;2022-12-07T14:00:36;5.00;;;4.60;;
19179;SDS011;9722;48.754;8.868;2022-12-07T14:04:16;3.40;;;3.13;;
19179;SDS011;9722;48.754;8.868;2022-12-07T14:11:18;3.37;;;3.17;;
19179;SDS011;9722;48.754;8.868;2022-12-07T14:14:40;3.57;;;3.30;;
19179;SDS011;9722;48.754;8.868;2022-12-07T14:18:24;4.03;;;3.73;;
19179;SDS011;9722;48.754;8.868;2022-12-07T14:22:07;4.20;;;3.80;;
19179;SDS011;9722;48.754;8.868;2022-12-07T14:25:32;4.20;;;3.77;;
19179;SDS011;9722;48.754;8.868;2022-12-07T14:28:52;4.40;;;4.00;;
19179;SDS011;9722;48.754;8.868;2022-12-07T14:32:34;4.20;;;3.90;;
19179;SDS011;9722;48.754;8.868;2022-12-07T14:35:57;3.87;;;3.57;;
19179;SDS011;9722;48.754;8.868;2022-12-07T14:39:18;3.80;;;3.50;;
19179;SDS011;9722;48.754;8.868;2022-12-07T14:42:38;3.73;;;3.30;;
19179;SDS011;9722;48.754;8.868;2022-12-07T14:45:59;3.33;;;3.03;;
19179;SDS011;9722;48.754;8.868;2022-12-07T14:49:22;3.73;;;3.43;;
19179;SDS011;9722;48.754;8.868;2022-12-07T14:52:43;4.13;;;3.83;;
19179;SDS011;9722;48.754;8.868;2022-12-07T14:56:14;4.10;;;3.70;;
19179;SDS011;9722;48.754;8.868;2022-12-07T14:59:34;4.33;;;3.93;;
19179;SDS011;9722;48.754;8.868;2022-12-07T15:02:55;3.90;;;3.60;;
19179;SDS011;9722;48.754;8.868;2022-12-07T15:06:17;4.33;;;3.93;;
19179;SDS011;9722;48.754;8.868;2022-12-07T15:09:38;3.83;;;3.43;;
19179;SDS011;9722;48.754;8.868;2022-12-07T15:12:59;3.97;;;3.57;;
19179;SDS011;9722;48.754;8.868;2022-12-07T15:16:41;4.30;;;3.90;;
19179;SDS011;9722;48.754;8.868;2022-12-07T15:20:02;4.90;;;4.50;;
19179;SDS011;9722;48.754;8.868;2022-12-07T15:23:23;5.83;;;5.23;;
19179;SDS011;9722;48.754;8.868;2022-12-07T15:26:44;7.67;;;6.27;;
19179;SDS011;9722;48.754;8.868;2022-12-07T15:30:05;9.27;;;7.47;;
19179;SDS011;9722;48.754;8.868;2022-12-07T15:33:26;5.47;;;4.97;;
19179;SDS011;9722;48.754;8.868;2022-12-07T15:36:46;6.20;;;5.60;;
19179;SDS011;9722;48.754;8.868;2022-12-07T15:40:07;6.27;;;5.57;;
19179;SDS011;9722;48.754;8.868;2022-12-07T15:43:28;7.33;;;6.50;;
19179;SDS011;9722;48.754;8.868;2022-12-07T15:47:07;7.60;;;5.80;;
19179;SDS011;9722;48.754;8.868;2022-12-07T15:50:27;6.13;;;5.53;;
19179;SDS011;9722;48.754;8.868;2022-12-07T15:53:48;5.90;;;5.07;;
19179;SDS011;9722;48.754;8.868;2022-12-07T15:57:08;4.73;;;4.23;;
19179;SDS011;9722;48.754;8.868;2022-12-07T16:00:29;4.93;;;4.27;;
19179;SDS011;9722;48.754;8.868;2022-12-07T16:03:49;4.60;;;4.00;;
19179;SDS011;9722;48.754;8.868;2022-12-07T16:07:10;4.57;;;4.17;;
19179;SDS011;9722;48.754;8.868;2022-12-07T16:10:31;4.10;;;3.70;;
19179;SDS011;9722;48.754;8.868;2022-12-07T16:13:52;3.63;;;3.33;;
19179;SDS011;9722;48.754;8.868;2022-12-07T16:17:12;4.13;;;3.80;;
19179;SDS011;9722;48.754;8.868;2022-12-07T16:20:33;4.30;;;3.90;;
19179;SDS011;9722;48.754;8.868;2022-12-07T16:23:53;4.00;;;3.60;;
19179;SDS011;9722;48.754;8.868;2022-12-07T16:27:14;4.77;;;4.17;;
19179;SDS011;9722;48.754;8.868;2022-12-07T16:30:34;4.30;;;3.83;;
19179;SDS011;9722;48.754;8.868;2022-12-07T16:33:56;4.90;;;4.50;;
19179;SDS011;9722;48.754;8.868;2022-12-07T16:37:17;5.00;;;4.50;;
19179;SDS011;9722;48.754;8.868;2022-12-07T16:40:38;4.33;;;3.93;;
19179;SDS011;9722;48.754;8.868;2022-12-07T16:44:03;4.10;;;3.70;;
19179;SDS011;9722;48.754;8.868;2022-12-07T16:47:25;5.00;;;3.70;;
19179;SDS011;9722;48.754;8.868;2022-12-07T16:50:46;4.70;;;4.20;;
19179;SDS011;9722;48.754;8.868;2022-12-07T16:54:08;8.73;;;5.60;;
19179;SDS011;9722;48.754;8.868;2022-12-07T16:57:30;7.20;;;5.50;;
19179;SDS011;9722;48.754;8.868;2022-12-07T17:00:51;6.17;;;5.57;;
19179;SDS011;9722;48.754;8.868;2022-12-07T17:04:12;6.07;;;5.47;;
19179;SDS011;9722;48.754;8.868;2022-12-07T17:07:33;6.80;;;6.10;;
19179;SDS011;9722;48.754;8.868;2022-12-07T17:10:53;7.23;;;6.50;;
19179;SDS011;9722;48.754;8.868;2022-12-07T17:14:14;6.57;;;5.87;;
19179;SDS011;9722;48.754;8.868;2022-12-07T17:17:53;12.07;;;9.67;;
19179;SDS011;9722;48.754;8.868;2022-12-07T17:21:15;6.83;;;5.80;;
19179;SDS011;9722;48.754;8.868;2022-12-07T17:24:36;5.87;;;4.70;;
19179;SDS011;9722;48.754;8.868;2022-12-07T17:27:56;5.93;;;5.43;;
19179;SDS011;9722;48.754;8.868;2022-12-07T17:31:18;7.60;;;6.90;;
19179;SDS011;9722;48.754;8.868;2022-12-07T17:34:40;6.93;;;6.23;;
19179;SDS011;9722;48.754;8.868;2022-12-07T17:38:00;9.10;;;8.10;;
19179;SDS011;9722;48.754;8.868;2022-12-07T17:41:22;10.13;;;8.53;;
19179;SDS011;9722;48.754;8.868;2022-12-07T17:45:03;7.23;;;6.50;;
19179;SDS011;9722;48.754;8.868;2022-12-07T17:48:25;8.77;;;6.70;;
19179;SDS011;9722;48.754;8.868;2022-12-07T17:51:46;7.60;;;6.90;;
19179;SDS011;9722;48.754;8.868;2022-12-07T17:55:25;8.30;;;7.50;;
19179;SDS011;9722;48.754;8.868;2022-12-07T17:58:46;7.17;;;6.57;;
19179;SDS011;9722;48.754;8.868;2022-12-07T18:02:08;7.70;;;6.90;;
19179;SDS011;9722;48.754;8.868;2022-12-07T18:05:29;9.43;;;8.37;;
19179;SDS011;9722;48.754;8.868;2022-12-07T18:08:49;8.90;;;8.10;;
19179;SDS011;9722;48.754;8.868;2022-12-07T18:12:10;13.07;;;9.60;;
19179;SDS011;9722;48.754;8.868;2022-12-07T18:15:30;10.63;;;9.47;;
19179;SDS011;9722;48.754;8.868;2022-12-07T18:18:51;9.80;;;8.90;;
19179;SDS011;9722;48.754;8.868;2022-12-07T18:22:12;12.43;;;8.97;;
19179;SDS011;9722;48.754;8.868;2022-12-07T18:25:33;10.70;;;8.87;;
19179;SDS011;9722;48.754;8.868;2022-12-07T18:28:54;23.00;;;16.50;;
19179;SDS011;9722;48.754;8.868;2022-12-07T18:32:14;7.77;;;7.07;;
19179;SDS011;9722;48.754;8.868;2022-12-07T18:35:35;8.50;;;7.03;;
19179;SDS011;9722;48.754;8.868;2022-12-07T18:38:56;9.30;;;7.40;;
19179;SDS011;9722;48.754;8.868;2022-12-07T18:42:16;9.43;;;8.30;;
19179;SDS011;9722;48.754;8.868;2022-12-07T18:45:38;9.03;;;7.70;;
19179;SDS011;9722;48.754;8.868;2022-12-07T18:49:00;7.50;;;6.90;;
19179;SDS011;9722;48.754;8.868;2022-12-07T18:52:21;6.77;;;5.63;;
19179;SDS011;9722;48.754;8.868;2022-12-07T18:55:41;15.30;;;11.53;;
19179;SDS011;9722;48.754;8.868;2022-12-07T18:59:02;11.70;;;10.50;;
19179;SDS011;9722;48.754;8.868;2022-12-07T19:02:55;12.37;;;10.30;;
19179;SDS011;9722;48.754;8.868;2022-12-07T19:06:16;8.80;;;7.73;;
19179;SDS011;9722;48.754;8.868;2022-12-07T19:09:36;7.57;;;6.47;;
19179;SDS011;9722;48.754;8.868;2022-12-07T19:12:57;6.40;;;5.73;;
19179;SDS011;9722;48.754;8.868;2022-12-07T19:16:18;6.47;;;5.87;;
19179;SDS011;9722;48.754;8.868;2022-12-07T19:19:39;6.43;;;5.67;;
19179;SDS011;9722;48.754;8.868;2022-12-07T19:23:01;5.80;;;5.20;;
19179;SDS011;9722;48.754;8.868;2022-12-07T19:26:22;6.13;;;5.53;;
19179;SDS011;9722;48.754;8.868;2022-12-07T19:29:43;8.50;;;6.53;;
19179;SDS011;9722;48.754;8.868;2022-12-07T19:33:04;7.20;;;6.50;;
19179;SDS011;9722;48.754;8.868;2022-12-07T19:36:24;5.63;;;5.13;;
19179;SDS011;9722;48.754;8.868;2022-12-07T19:39:45;6.70;;;5.83;;
19179;SDS011;9722;48.754;8.868;2022-12-07T19:43:07;7.23;;;5.70;;
19179;SDS011;9722;48.754;8.868;2022-12-07T19:46:27;6.70;;;6.10;;
19179;SDS011;9722;48.754;8.868;2022-12-07T19:49:48;6.60;;;5.73;;
19179;SDS011;9722;48.754;8.868;2022-12-07T19:53:09;5.43;;;4.93;;
19179;SDS011;9722;48.754;8.868;2022-12-07T19:56:30;7.43;;;6.20;;
19179;SDS011;9722;48.754;8.868;2022-12-07T19:59:50;6.23;;;5.63;;
19179;SDS011;9722;48.754;8.868;2022-12-07T20:03:11;5.43;;;4.93;;
19179;SDS011;9722;48.754;8.868;2022-12-07T20:06:31;8.87;;;7.07;;
19179;SDS011;9722;48.754;8.868;2022-12-07T20:09:52;8.43;;;7.07;;
19179;SDS011;9722;48.754;8.868;2022-12-07T20:13:13;11.23;;;8.37;;
19179;SDS011;9722;48.754;8.868;2022-12-07T20:16:50;9.00;;;8.10;;
19179;SDS011;9722;48.754;8.868;2022-12-07T20:20:11;7.20;;;6.50;;
19179;SDS011;9722;48.754;8.868;2022-12-07T20:23:31;6.57;;;5.80;;
19179;SDS011;9722;48.754;8.868;2022-12-07T20:26:52;8.73;;;7.93;;
19179;SDS011;9722;48.754;8.868;2022-12-07T20:30:13;13.43;;;12.10;;
19179;SDS011;9722;48.754;8.868;2022-12-07T20:33:34;10.30;;;9.23;;
19179;SDS011;9722;48.754;8.868;2022-12-07T20:36:54;6.63;;;5.97;;
19179;SDS011;9722;48.754;8.868;2022-12-07T20:40:15;8.63;;;7.37;;
19179;SDS011;9722;48.754;8.868;2022-12-07T20:43:35;47.30;;;25.77;;
19179;SDS011;9722;48.754;8.868;2022-12-07T20:46:56;31.60;;;20.33;;
19179;SDS011;9722;48.754;8.868;2022-12-07T20:50:16;14.07;;;9.90;;
19179;SDS011;9722;48.754;8.868;2022-12-07T20:53:37;18.43;;;15.13;;
19179;SDS011;9722;48.754;8.868;2022-12-07T20:56:57;16.67;;;13.67;;
19179;SDS011;9722;48.754;8.868;2022-12-07T21:00:18;12.87;;;11.67;;
19179;SDS011;9722;48.754;8.868;2022-12-07T21:03:39;14.90;;;12.03;;
19179;SDS011;9722;48.754;8.868;2022-12-07T21:06:59;20.43;;;15.77;;
19179;SDS011;9722;48.754;8.868;2022-12-07T21:10:20;9.33;;;8.23;;
19179;SDS011;9722;48.754;8.868;2022-12-07T21:13:40;9.17;;;7.90;;
19179;SDS011;9722;48.754;8.868;2022-12-07T21:17:01;7.63;;;6.83;;
19179;SDS011;9722;48.754;8.868;2022-12-07T21:20:22;6.93;;;6.23;;
19179;SDS011;9722;48.754;8.868;2022-12-07T21:23:43;7.53;;;6.60;;
19179;SDS011;9722;48.754;8.868;2022-12-07T21:27:04;7.17;;;6.50;;
19179;SDS011;9722;48.754;8.868;2022-12-07T21:30:25;7.13;;;6.43;;
19179;SDS011;9722;48.754;8.868;2022-12-07T21:33:47;6.23;;;5.60;;
19179;SDS011;9722;48.754;8.868;2022-12-07T21:37:07;5.83;;;5.23;;
19179;SDS011;9722;48.754;8.868;2022-12-07T21:40:28;7.13;;;6.43;;
19179;SDS011;9722;48.754;8.868;2022-12-07T21:43:49;6.83;;;6.13;;
19179;SDS011;9722;48.754;8.868;2022-12-07T21:47:09;7.10;;;6.40;;
19179;SDS011;9722;48.754;8.868;2022-12-07T21:50:30;7.30;;;6.60;;
19179;SDS011;9722;48.754;8.868;2022-12-07T21:53:53;7.53;;;6.73;;
19179;SDS011;9722;48.754;8.868;2022-12-07T21:57:15;8.00;;;7.20;;
19179;SDS011;9722;48.754;8.868;2022-12-07T22:00:35;6.47;;;5.93;;
19179;SDS011;9722;48.754;8.868;2022-12-07T22:03:56;7.07;;;6.37;;
19179;SDS011;9722;48.754;8.868;2022-12-07T22:07:16;6.23;;;5.63;;
19179;SDS011;9722;48.754;8.868;2022-12-07T22:10:37;6.53;;;5.90;;
19179;SDS011;9722;48.754;8.868;2022-12-07T22:13:57;6.53;;;5.33;;
19179;SDS011;9722;48.754;8.868;2022-12-07T22:17:37;6.97;;;6.00;;
19179;SDS011;9722;48.754;8.868;2022-12-07T22:20:58;8.80;;;6.37;;
19179;SDS011;9722;48.754;8.868;2022-12-07T22:24:19;11.07;;;6.90;;
19179;SDS011;9722;48.754;8.868;2022-12-07T22:27:40;7.47;;;5.97;;
19179;SDS011;9722;48.754;8.868;2022-12-07T22:31:02;7.80;;;6.97;;
19179;SDS011;9722;48.754;8.868;2022-12-07T22:34:23;7.77;;;6.97;;